sensor_id;sensor_type;location;lat;lon;timestamp;P1;durP1;ratioP1;P2;durP2;ratioP2
77326;SDS011;66399;52.322;20.980;2023-05-20T00:02:10;6.80;;;3.60;;
77326;SDS011;66399;52.322;20.980;2023-05-20T00:06:15;5.30;;;3.00;;
77326;SDS011;66399;52.322;20.980;2023-05-20T00:10:20;7.10;;;3.40;;
77326;SDS011;66399;52.322;20.980;2023-05-20T00:14:26;6.40;;;3.10;;
77326;SDS011;66399;52.322;20.980;2023-05-20T00:18:31;6.50;;;3.40;;
77326;SDS011;66399;52.322;20.980;2023-05-20T00:22:36;7.50;;;3.20;;
77326;SDS011;66399;52.322;20.980;2023-05-20T00:26:41;6.90;;;2.80;;
77326;SDS011;66399;52.322;20.980;2023-05-20T00:30:46;6.40;;;3.00;;
77326;SDS011;66399;52.322;20.980;2023-05-20T00:34:58;6.60;;;3.00;;
77326;SDS011;66399;52.322;20.980;2023-05-20T00:39:03;5.50;;;2.70;;
77326;SDS011;66399;52.322;20.980;2023-05-20T00:43:09;5.30;;;2.80;;
77326;SDS011;66399;52.322;20.980;2023-05-20T00:47:14;5.30;;;2.50;;
77326;SDS011;66399;52.322;20.980;2023-05-20T00:51:20;5.30;;;2.60;;
77326;SDS011;66399;52.322;20.980;2023-05-20T00:55:25;4.10;;;2.60;;
77326;SDS011;66399;52.322;20.980;2023-05-20T00:59:30;5.20;;;2.80;;
77326;SDS011;66399;52.322;20.980;2023-05-20T01:03:35;4.60;;;2.50;;
77326;SDS011;66399;52.322;20.980;2023-05-20T01:07:41;4.80;;;2.30;;
77326;SDS011;66399;52.322;20.980;2023-05-20T01:11:51;4.50;;;2.40;;
77326;SDS011;66399;52.322;20.980;2023-05-20T01:15:59;5.00;;;2.40;;
77326;SDS011;66399;52.322;20.980;2023-05-20T01:20:05;5.80;;;2.40;;
77326;SDS011;66399;52.322;20.980;2023-05-20T01:24:12;5.10;;;2.10;;
77326;SDS011;66399;52.322;20.980;2023-05-20T01:28:18;4.50;;;2.60;;
77326;SDS011;66399;52.322;20.980;2023-05-20T01:32:25;3.60;;;2.10;;
77326;SDS011;66399;52.322;20.980;2023-05-20T01:36:31;5.80;;;2.50;;
77326;SDS011;66399;52.322;20.980;2023-05-20T01:40:37;4.50;;;2.10;;
77326;SDS011;66399;52.322;20.980;2023-05-20T01:44:44;4.50;;;2.40;;
77326;SDS011;66399;52.322;20.980;2023-05-20T01:48:49;4.40;;;1.90;;
77326;SDS011;66399;52.322;20.980;2023-05-20T01:52:55;4.60;;;2.30;;
77326;SDS011;66399;52.322;20.980;2023-05-20T01:57:00;5.10;;;2.20;;
77326;SDS011;66399;52.322;20.980;2023-05-20T02:01:05;4.20;;;2.60;;
77326;SDS011;66399;52.322;20.980;2023-05-20T02:05:11;5.60;;;2.00;;
77326;SDS011;66399;52.322;20.980;2023-05-20T02:09:16;4.70;;;2.40;;
77326;SDS011;66399;52.322;20.980;2023-05-20T02:13:22;4.30;;;2.30;;
77326;SDS011;66399;52.322;20.980;2023-05-20T02:17:27;3.20;;;2.00;;
77326;SDS011;66399;52.322;20.980;2023-05-20T02:21:32;3.90;;;1.90;;
77326;SDS011;66399;52.322;20.980;2023-05-20T02:25:38;3.90;;;2.20;;
77326;SDS011;66399;52.322;20.980;2023-05-20T02:29:43;4.50;;;2.20;;
77326;SDS011;66399;52.322;20.980;2023-05-20T02:33:48;3.90;;;2.10;;
77326;SDS011;66399;52.322;20.980;2023-05-20T02:37:53;4.70;;;2.10;;
77326;SDS011;66399;52.322;20.980;2023-05-20T02:41:59;4.20;;;2.10;;
77326;SDS011;66399;52.322;20.980;2023-05-20T02:46:04;4.60;;;2.10;;
77326;SDS011;66399;52.322;20.980;2023-05-20T02:50:10;4.70;;;2.00;;
77326;SDS011;66399;52.322;20.980;2023-05-20T02:54:15;4.10;;;2.00;;
77326;SDS011;66399;52.322;20.980;2023-05-20T02:58:20;5.20;;;2.10;;
77326;SDS011;66399;52.322;20.980;2023-05-20T03:02:29;3.60;;;2.10;;
77326;SDS011;66399;52.322;20.980;2023-05-20T03:06:34;5.10;;;2.40;;
77326;SDS011;66399;52.322;20.980;2023-05-20T03:10:41;3.80;;;2.10;;
77326;SDS011;66399;52.322;20.980;2023-05-20T03:14:46;4.70;;;2.30;;
77326;SDS011;66399;52.322;20.980;2023-05-20T03:18:51;4.90;;;2.40;;
77326;SDS011;66399;52.322;20.980;2023-05-20T03:22:57;5.10;;;2.30;;
77326;SDS011;66399;52.322;20.980;2023-05-20T03:27:02;4.40;;;2.20;;
77326;SDS011;66399;52.322;20.980;2023-05-20T03:31:08;4.50;;;2.50;;
77326;SDS011;66399;52.322;20.980;2023-05-20T03:35:13;4.10;;;2.00;;
77326;SDS011;66399;52.322;20.980;2023-05-20T03:39:18;5.40;;;2.80;;
77326;SDS011;66399;52.322;20.980;2023-05-20T03:43:23;4.70;;;2.40;;
77326;SDS011;66399;52.322;20.980;2023-05-20T03:47:30;3.90;;;2.10;;
77326;SDS011;66399;52.322;20.980;2023-05-20T03:51:35;4.20;;;2.30;;
77326;SDS011;66399;52.322;20.980;2023-05-20T03:55:40;4.00;;;1.90;;
77326;SDS011;66399;52.322;20.980;2023-05-20T03:59:46;5.10;;;2.20;;
77326;SDS011;66399;52.322;20.980;2023-05-20T04:03:51;6.10;;;2.60;;
77326;SDS011;66399;52.322;20.980;2023-05-20T04:07:56;4.20;;;2.30;;
77326;SDS011;66399;52.322;20.980;2023-05-20T04:12:02;6.70;;;2.30;;
77326;SDS011;66399;52.322;20.980;2023-05-20T04:16:07;6.80;;;3.20;;
77326;SDS011;66399;52.322;20.980;2023-05-20T04:20:13;4.60;;;2.30;;
77326;SDS011;66399;52.322;20.980;2023-05-20T04:24:18;4.80;;;2.30;;
77326;SDS011;66399;52.322;20.980;2023-05-20T04:28:28;5.60;;;2.70;;
77326;SDS011;66399;52.322;20.980;2023-05-20T04:32:34;4.30;;;2.40;;
77326;SDS011;66399;52.322;20.980;2023-05-20T04:36:39;6.40;;;2.60;;
77326;SDS011;66399;52.322;20.980;2023-05-20T04:40:44;3.30;;;1.90;;
77326;SDS011;66399;52.322;20.980;2023-05-20T04:44:49;5.40;;;2.30;;
77326;SDS011;66399;52.322;20.980;2023-05-20T04:48:55;5.20;;;2.20;;
77326;SDS011;66399;52.322;20.980;2023-05-20T04:53:00;4.30;;;2.30;;
77326;SDS011;66399;52.322;20.980;2023-05-20T04:57:08;5.80;;;2.80;;
77326;SDS011;66399;52.322;20.980;2023-05-20T05:01:13;4.60;;;2.30;;
77326;SDS011;66399;52.322;20.980;2023-05-20T05:05:19;6.20;;;2.50;;
77326;SDS011;66399;52.322;20.980;2023-05-20T05:09:24;5.20;;;2.60;;
77326;SDS011;66399;52.322;20.980;2023-05-20T05:13:29;4.70;;;2.30;;
77326;SDS011;66399;52.322;20.980;2023-05-20T05:17:34;5.80;;;2.80;;
77326;SDS011;66399;52.322;20.980;2023-05-20T05:21:39;5.90;;;2.80;;
77326;SDS011;66399;52.322;20.980;2023-05-20T05:25:48;4.40;;;2.00;;
77326;SDS011;66399;52.322;20.980;2023-05-20T05:29:54;3.90;;;2.20;;
77326;SDS011;66399;52.322;20.980;2023-05-20T05:34:00;4.80;;;2.60;;
77326;SDS011;66399;52.322;20.980;2023-05-20T05:38:05;6.20;;;2.80;;
77326;SDS011;66399;52.322;20.980;2023-05-20T05:42:10;4.80;;;2.30;;
77326;SDS011;66399;52.322;20.980;2023-05-20T05:46:15;7.40;;;2.70;;
77326;SDS011;66399;52.322;20.980;2023-05-20T05:50:35;5.60;;;2.30;;
77326;SDS011;66399;52.322;20.980;2023-05-20T05:54:41;4.80;;;2.50;;
77326;SDS011;66399;52.322;20.980;2023-05-20T06:16:54;6.00;;;2.60;;
77326;SDS011;66399;52.322;20.980;2023-05-20T06:21:06;4.90;;;2.60;;
77326;SDS011;66399;52.322;20.980;2023-05-20T06:25:11;4.70;;;2.60;;
77326;SDS011;66399;52.322;20.980;2023-05-20T06:29:25;5.40;;;2.60;;
77326;SDS011;66399;52.322;20.980;2023-05-20T06:33:30;4.20;;;2.60;;
77326;SDS011;66399;52.322;20.980;2023-05-20T06:37:36;4.50;;;2.40;;
77326;SDS011;66399;52.322;20.980;2023-05-20T06:41:49;7.10;;;2.70;;
77326;SDS011;66399;52.322;20.980;2023-05-20T06:45:55;7.20;;;3.00;;
77326;SDS011;66399;52.322;20.980;2023-05-20T06:50:00;5.40;;;2.70;;
77326;SDS011;66399;52.322;20.980;2023-05-20T06:54:18;5.10;;;2.50;;
77326;SDS011;66399;52.322;20.980;2023-05-20T06:58:24;4.90;;;3.00;;
77326;SDS011;66399;52.322;20.980;2023-05-20T07:10:50;5.50;;;2.80;;
77326;SDS011;66399;52.322;20.980;2023-05-20T07:19:14;5.20;;;2.80;;
77326;SDS011;66399;52.322;20.980;2023-05-20T07:23:19;7.90;;;3.10;;
77326;SDS011;66399;52.322;20.980;2023-05-20T07:27:43;5.50;;;2.90;;
77326;SDS011;66399;52.322;20.980;2023-05-20T07:36:03;5.40;;;2.60;;
77326;SDS011;66399;52.322;20.980;2023-05-20T07:40:32;5.20;;;2.50;;
77326;SDS011;66399;52.322;20.980;2023-05-20T07:58:19;5.20;;;2.90;;
77326;SDS011;66399;52.322;20.980;2023-05-20T08:02:24;5.40;;;2.70;;
77326;SDS011;66399;52.322;20.980;2023-05-20T08:06:30;5.80;;;3.40;;
77326;SDS011;66399;52.322;20.980;2023-05-20T08:15:16;5.00;;;2.60;;
77326;SDS011;66399;52.322;20.980;2023-05-20T08:19:21;5.30;;;2.60;;
77326;SDS011;66399;52.322;20.980;2023-05-20T08:23:26;4.10;;;2.70;;
77326;SDS011;66399;52.322;20.980;2023-05-20T08:27:36;7.10;;;2.90;;
77326;SDS011;66399;52.322;20.980;2023-05-20T08:31:42;6.50;;;2.50;;
77326;SDS011;66399;52.322;20.980;2023-05-20T08:35:47;3.90;;;2.50;;
77326;SDS011;66399;52.322;20.980;2023-05-20T08:53:07;6.20;;;3.10;;
77326;SDS011;66399;52.322;20.980;2023-05-20T08:57:12;4.50;;;2.90;;
77326;SDS011;66399;52.322;20.980;2023-05-20T09:05:52;6.60;;;3.40;;
77326;SDS011;66399;52.322;20.980;2023-05-20T09:09:58;5.80;;;3.10;;
77326;SDS011;66399;52.322;20.980;2023-05-20T09:18:17;7.90;;;3.80;;
77326;SDS011;66399;52.322;20.980;2023-05-20T09:22:31;5.30;;;3.00;;
77326;SDS011;66399;52.322;20.980;2023-05-20T09:26:36;7.70;;;3.60;;
77326;SDS011;66399;52.322;20.980;2023-05-20T09:30:41;10.30;;;3.50;;
77326;SDS011;66399;52.322;20.980;2023-05-20T09:35:05;7.50;;;3.50;;
77326;SDS011;66399;52.322;20.980;2023-05-20T09:39:13;6.60;;;3.30;;
77326;SDS011;66399;52.322;20.980;2023-05-20T09:43:36;6.40;;;4.10;;
77326;SDS011;66399;52.322;20.980;2023-05-20T09:51:59;6.60;;;4.20;;
77326;SDS011;66399;52.322;20.980;2023-05-20T09:56:06;9.00;;;4.30;;
77326;SDS011;66399;52.322;20.980;2023-05-20T10:09:00;6.90;;;3.90;;
77326;SDS011;66399;52.322;20.980;2023-05-20T10:13:33;6.10;;;4.30;;
77326;SDS011;66399;52.322;20.980;2023-05-20T10:18:15;7.10;;;4.00;;
77326;SDS011;66399;52.322;20.980;2023-05-20T10:26:38;5.90;;;3.70;;
77326;SDS011;66399;52.322;20.980;2023-05-20T10:30:49;5.60;;;4.10;;
77326;SDS011;66399;52.322;20.980;2023-05-20T10:34:59;6.90;;;4.10;;
77326;SDS011;66399;52.322;20.980;2023-05-20T10:39:08;6.60;;;4.00;;
77326;SDS011;66399;52.322;20.980;2023-05-20T10:43:28;6.30;;;3.90;;
77326;SDS011;66399;52.322;20.980;2023-05-20T10:47:34;5.90;;;3.90;;
77326;SDS011;66399;52.322;20.980;2023-05-20T11:18:53;6.10;;;4.10;;
77326;SDS011;66399;52.322;20.980;2023-05-20T11:22:58;5.80;;;4.20;;
77326;SDS011;66399;52.322;20.980;2023-05-20T11:27:05;8.10;;;3.90;;
77326;SDS011;66399;52.322;20.980;2023-05-20T11:40:02;7.30;;;4.50;;
77326;SDS011;66399;52.322;20.980;2023-05-20T11:57:27;7.60;;;3.90;;
77326;SDS011;66399;52.322;20.980;2023-05-20T12:01:33;9.00;;;3.90;;
77326;SDS011;66399;52.322;20.980;2023-05-20T12:05:48;5.70;;;4.20;;
77326;SDS011;66399;52.322;20.980;2023-05-20T12:09:54;5.90;;;4.00;;
77326;SDS011;66399;52.322;20.980;2023-05-20T12:14:07;7.50;;;4.20;;
77326;SDS011;66399;52.322;20.980;2023-05-20T12:18:12;5.60;;;4.10;;
77326;SDS011;66399;52.322;20.980;2023-05-20T12:22:17;9.30;;;4.80;;
77326;SDS011;66399;52.322;20.980;2023-05-20T12:26:34;7.00;;;4.30;;
77326;SDS011;66399;52.322;20.980;2023-05-20T12:30:40;7.10;;;4.60;;
77326;SDS011;66399;52.322;20.980;2023-05-20T12:48:04;8.80;;;4.10;;
77326;SDS011;66399;52.322;20.980;2023-05-20T13:32:52;6.40;;;4.30;;
77326;SDS011;66399;52.322;20.980;2023-05-20T13:37:14;6.50;;;4.20;;
77326;SDS011;66399;52.322;20.980;2023-05-20T13:59:29;7.10;;;4.40;;
77326;SDS011;66399;52.322;20.980;2023-05-20T14:03:35;6.60;;;4.10;;
77326;SDS011;66399;52.322;20.980;2023-05-20T14:16:24;8.00;;;4.20;;
77326;SDS011;66399;52.322;20.980;2023-05-20T14:20:29;9.50;;;4.90;;
77326;SDS011;66399;52.322;20.980;2023-05-20T14:28:47;8.20;;;3.90;;
77326;SDS011;66399;52.322;20.980;2023-05-20T14:32:52;8.00;;;4.70;;
77326;SDS011;66399;52.322;20.980;2023-05-20T14:41:15;6.00;;;4.50;;
77326;SDS011;66399;52.322;20.980;2023-05-20T14:45:20;7.60;;;4.90;;
77326;SDS011;66399;52.322;20.980;2023-05-20T14:49:25;5.90;;;4.60;;
77326;SDS011;66399;52.322;20.980;2023-05-20T15:02:39;7.90;;;4.70;;
77326;SDS011;66399;52.322;20.980;2023-05-20T15:06:44;7.20;;;5.00;;
77326;SDS011;66399;52.322;20.980;2023-05-20T15:10:58;6.00;;;4.40;;
77326;SDS011;66399;52.322;20.980;2023-05-20T15:15:03;7.80;;;5.00;;
77326;SDS011;66399;52.322;20.980;2023-05-20T15:19:09;7.40;;;4.90;;
77326;SDS011;66399;52.322;20.980;2023-05-20T15:23:28;6.50;;;4.40;;
77326;SDS011;66399;52.322;20.980;2023-05-20T15:27:33;5.40;;;4.10;;
77326;SDS011;66399;52.322;20.980;2023-05-20T15:36:00;5.60;;;4.40;;
77326;SDS011;66399;52.322;20.980;2023-05-20T15:40:07;8.80;;;5.20;;
77326;SDS011;66399;52.322;20.980;2023-05-20T15:48:23;5.70;;;4.30;;
77326;SDS011;66399;52.322;20.980;2023-05-20T15:56:39;7.40;;;4.60;;
77326;SDS011;66399;52.322;20.980;2023-05-20T16:00:45;5.90;;;3.90;;
77326;SDS011;66399;52.322;20.980;2023-05-20T16:09:01;5.90;;;4.30;;
77326;SDS011;66399;52.322;20.980;2023-05-20T16:13:07;5.20;;;3.90;;
77326;SDS011;66399;52.322;20.980;2023-05-20T16:21:26;8.30;;;4.30;;
77326;SDS011;66399;52.322;20.980;2023-05-20T16:25:32;6.70;;;3.70;;
77326;SDS011;66399;52.322;20.980;2023-05-20T16:42:51;7.00;;;3.80;;
77326;SDS011;66399;52.322;20.980;2023-05-20T16:46:57;6.60;;;4.00;;
77326;SDS011;66399;52.322;20.980;2023-05-20T16:59:59;6.90;;;3.80;;
77326;SDS011;66399;52.322;20.980;2023-05-20T17:04:04;4.70;;;3.90;;
77326;SDS011;66399;52.322;20.980;2023-05-20T17:12:25;6.00;;;3.80;;
77326;SDS011;66399;52.322;20.980;2023-05-20T17:16:30;5.10;;;3.10;;
77326;SDS011;66399;52.322;20.980;2023-05-20T17:24:53;9.20;;;4.00;;
77326;SDS011;66399;52.322;20.980;2023-05-20T17:28:58;5.70;;;3.70;;
77326;SDS011;66399;52.322;20.980;2023-05-20T17:41:32;8.00;;;4.10;;
77326;SDS011;66399;52.322;20.980;2023-05-20T17:45:37;6.10;;;4.10;;
77326;SDS011;66399;52.322;20.980;2023-05-20T17:49:42;6.40;;;3.50;;
77326;SDS011;66399;52.322;20.980;2023-05-20T17:54:06;4.10;;;2.80;;
77326;SDS011;66399;52.322;20.980;2023-05-20T17:58:11;5.30;;;3.50;;
77326;SDS011;66399;52.322;20.980;2023-05-20T18:06:42;8.10;;;3.30;;
77326;SDS011;66399;52.322;20.980;2023-05-20T18:10:47;6.40;;;3.90;;
77326;SDS011;66399;52.322;20.980;2023-05-20T18:15:07;7.60;;;3.50;;
77326;SDS011;66399;52.322;20.980;2023-05-20T18:19:12;6.90;;;3.50;;
77326;SDS011;66399;52.322;20.980;2023-05-20T18:23:18;4.80;;;3.30;;
77326;SDS011;66399;52.322;20.980;2023-05-20T18:27:23;7.70;;;3.70;;
77326;SDS011;66399;52.322;20.980;2023-05-20T18:31:29;6.80;;;3.70;;
77326;SDS011;66399;52.322;20.980;2023-05-20T18:35:34;7.70;;;3.60;;
77326;SDS011;66399;52.322;20.980;2023-05-20T18:39:39;8.00;;;4.10;;
77326;SDS011;66399;52.322;20.980;2023-05-20T18:43:44;7.80;;;4.10;;
77326;SDS011;66399;52.322;20.980;2023-05-20T18:47:50;7.20;;;4.30;;
77326;SDS011;66399;52.322;20.980;2023-05-20T18:51:55;9.40;;;5.70;;
77326;SDS011;66399;52.322;20.980;2023-05-20T18:56:00;14.90;;;7.50;;
77326;SDS011;66399;52.322;20.980;2023-05-20T19:00:07;13.00;;;7.60;;
77326;SDS011;66399;52.322;20.980;2023-05-20T19:04:15;14.40;;;8.40;;
77326;SDS011;66399;52.322;20.980;2023-05-20T19:08:20;14.00;;;7.20;;
77326;SDS011;66399;52.322;20.980;2023-05-20T19:12:26;10.70;;;6.70;;
77326;SDS011;66399;52.322;20.980;2023-05-20T19:16:31;13.10;;;6.10;;
77326;SDS011;66399;52.322;20.980;2023-05-20T19:20:37;14.60;;;9.10;;
77326;SDS011;66399;52.322;20.980;2023-05-20T19:24:42;13.50;;;8.30;;
77326;SDS011;66399;52.322;20.980;2023-05-20T19:28:47;8.40;;;5.00;;
77326;SDS011;66399;52.322;20.980;2023-05-20T19:32:52;9.20;;;5.20;;
77326;SDS011;66399;52.322;20.980;2023-05-20T19:36:58;8.60;;;4.90;;
77326;SDS011;66399;52.322;20.980;2023-05-20T19:41:03;9.30;;;5.20;;
77326;SDS011;66399;52.322;20.980;2023-05-20T19:45:09;10.90;;;5.10;;
77326;SDS011;66399;52.322;20.980;2023-05-20T19:49:14;10.80;;;5.20;;
77326;SDS011;66399;52.322;20.980;2023-05-20T19:53:19;9.90;;;6.10;;
77326;SDS011;66399;52.322;20.980;2023-05-20T19:57:25;8.80;;;5.00;;
77326;SDS011;66399;52.322;20.980;2023-05-20T20:01:30;10.70;;;5.90;;
77326;SDS011;66399;52.322;20.980;2023-05-20T20:05:35;8.50;;;5.10;;
77326;SDS011;66399;52.322;20.980;2023-05-20T20:09:41;7.50;;;5.10;;
77326;SDS011;66399;52.322;20.980;2023-05-20T20:13:47;11.80;;;6.90;;
77326;SDS011;66399;52.322;20.980;2023-05-20T20:17:53;12.60;;;7.00;;
77326;SDS011;66399;52.322;20.980;2023-05-20T20:21:58;9.20;;;5.80;;
77326;SDS011;66399;52.322;20.980;2023-05-20T20:26:04;15.00;;;9.00;;
77326;SDS011;66399;52.322;20.980;2023-05-20T20:30:11;42.90;;;23.10;;
77326;SDS011;66399;52.322;20.980;2023-05-20T20:34:17;32.60;;;19.30;;
77326;SDS011;66399;52.322;20.980;2023-05-20T20:38:22;18.80;;;12.00;;
77326;SDS011;66399;52.322;20.980;2023-05-20T20:42:27;13.20;;;8.00;;
77326;SDS011;66399;52.322;20.980;2023-05-20T20:46:32;10.90;;;7.30;;
77326;SDS011;66399;52.322;20.980;2023-05-20T20:50:40;10.70;;;6.80;;
77326;SDS011;66399;52.322;20.980;2023-05-20T20:54:45;14.70;;;8.80;;
77326;SDS011;66399;52.322;20.980;2023-05-20T20:58:51;13.20;;;6.50;;
77326;SDS011;66399;52.322;20.980;2023-05-20T21:02:56;12.90;;;7.40;;
77326;SDS011;66399;52.322;20.980;2023-05-20T21:07:02;12.60;;;7.20;;
77326;SDS011;66399;52.322;20.980;2023-05-20T21:11:07;11.40;;;6.30;;
77326;SDS011;66399;52.322;20.980;2023-05-20T21:15:12;13.20;;;7.50;;
77326;SDS011;66399;52.322;20.980;2023-05-20T21:19:18;29.80;;;15.60;;
77326;SDS011;66399;52.322;20.980;2023-05-20T21:23:23;22.20;;;11.60;;
77326;SDS011;66399;52.322;20.980;2023-05-20T21:27:28;12.90;;;6.70;;
77326;SDS011;66399;52.322;20.980;2023-05-20T21:31:33;11.70;;;6.00;;
77326;SDS011;66399;52.322;20.980;2023-05-20T21:35:39;8.80;;;5.30;;
77326;SDS011;66399;52.322;20.980;2023-05-20T21:39:44;9.00;;;5.50;;
77326;SDS011;66399;52.322;20.980;2023-05-20T21:43:49;9.70;;;4.90;;
77326;SDS011;66399;52.322;20.980;2023-05-20T21:47:54;8.30;;;5.20;;
77326;SDS011;66399;52.322;20.980;2023-05-20T21:51:59;7.30;;;4.10;;
77326;SDS011;66399;52.322;20.980;2023-05-20T21:56:05;8.20;;;5.00;;
77326;SDS011;66399;52.322;20.980;2023-05-20T22:00:11;7.70;;;4.50;;
77326;SDS011;66399;52.322;20.980;2023-05-20T22:04:18;8.70;;;4.50;;
77326;SDS011;66399;52.322;20.980;2023-05-20T22:08:23;6.90;;;4.10;;
77326;SDS011;66399;52.322;20.980;2023-05-20T22:12:31;8.90;;;4.20;;
77326;SDS011;66399;52.322;20.980;2023-05-20T22:16:38;6.60;;;4.10;;
77326;SDS011;66399;52.322;20.980;2023-05-20T22:20:45;7.90;;;3.90;;
77326;SDS011;66399;52.322;20.980;2023-05-20T22:24:52;6.50;;;3.60;;
77326;SDS011;66399;52.322;20.980;2023-05-20T22:28:58;7.70;;;4.30;;
77326;SDS011;66399;52.322;20.980;2023-05-20T22:33:04;6.30;;;3.40;;
77326;SDS011;66399;52.322;20.980;2023-05-20T22:37:09;5.70;;;3.50;;
77326;SDS011;66399;52.322;20.980;2023-05-20T22:41:14;7.10;;;3.60;;
77326;SDS011;66399;52.322;20.980;2023-05-20T22:45:19;7.20;;;3.70;;
77326;SDS011;66399;52.322;20.980;2023-05-20T22:49:25;7.70;;;3.50;;
77326;SDS011;66399;52.322;20.980;2023-05-20T22:53:30;6.70;;;3.80;;
77326;SDS011;66399;52.322;20.980;2023-05-20T22:57:35;5.90;;;3.70;;
77326;SDS011;66399;52.322;20.980;2023-05-20T23:01:40;6.80;;;3.80;;
77326;SDS011;66399;52.322;20.980;2023-05-20T23:05:48;6.30;;;3.80;;
77326;SDS011;66399;52.322;20.980;2023-05-20T23:09:54;7.80;;;3.60;;
77326;SDS011;66399;52.322;20.980;2023-05-20T23:13:59;6.70;;;3.50;;
77326;SDS011;66399;52.322;20.980;2023-05-20T23:18:04;5.40;;;3.50;;
77326;SDS011;66399;52.322;20.980;2023-05-20T23:22:10;5.90;;;3.90;;
77326;SDS011;66399;52.322;20.980;2023-05-20T23:26:16;5.50;;;3.10;;
77326;SDS011;66399;52.322;20.980;2023-05-20T23:30:22;8.40;;;3.50;;
77326;SDS011;66399;52.322;20.980;2023-05-20T23:34:27;6.40;;;3.60;;
77326;SDS011;66399;52.322;20.980;2023-05-20T23:38:33;10.80;;;5.60;;
77326;SDS011;66399;52.322;20.980;2023-05-20T23:42:39;11.60;;;5.50;;
77326;SDS011;66399;52.322;20.980;2023-05-20T23:46:44;9.90;;;5.40;;
77326;SDS011;66399;52.322;20.980;2023-05-20T23:50:49;11.60;;;5.60;;
77326;SDS011;66399;52.322;20.980;2023-05-20T23:54:54;14.80;;;7.40;;
77326;SDS011;66399;52.322;20.980;2023-05-20T23:58:59;17.10;;;7.90;;
